sensor_id;sensor_type;location;lat;lon;timestamp;P1;durP1;ratioP1;P2;durP2;ratioP2
20078;SDS011;10199;48.850;8.924;2024-03-29T00:02:09;3.03;;;1.50;;
20078;SDS011;10199;48.850;8.924;2024-03-29T00:04:36;6.23;;;1.30;;
20078;SDS011;10199;48.850;8.924;2024-03-29T00:07:02;1.77;;;0.83;;
20078;SDS011;10199;48.850;8.924;2024-03-29T00:09:28;1.73;;;0.60;;
20078;SDS011;10199;48.850;8.924;2024-03-29T00:11:55;1.83;;;0.70;;
20078;SDS011;10199;48.850;8.924;2024-03-29T00:14:22;1.33;;;0.80;;
20078;SDS011;10199;48.850;8.924;2024-03-29T00:16:48;1.30;;;0.67;;
20078;SDS011;10199;48.850;8.924;2024-03-29T00:19:14;0.80;;;0.60;;
20078;SDS011;10199;48.850;8.924;2024-03-29T00:21:40;1.57;;;0.60;;
20078;SDS011;10199;48.850;8.924;2024-03-29T00:24:06;1.83;;;0.70;;
20078;SDS011;10199;48.850;8.924;2024-03-29T00:26:32;2.07;;;0.67;;
20078;SDS011;10199;48.850;8.924;2024-03-29T00:29:00;1.90;;;0.70;;
20078;SDS011;10199;48.850;8.924;2024-03-29T00:31:26;1.07;;;0.50;;
20078;SDS011;10199;48.850;8.924;2024-03-29T00:33:52;0.70;;;0.57;;
20078;SDS011;10199;48.850;8.924;2024-03-29T00:36:18;1.33;;;1.03;;
20078;SDS011;10199;48.850;8.924;2024-03-29T00:38:44;0.80;;;0.60;;
20078;SDS011;10199;48.850;8.924;2024-03-29T00:41:10;2.47;;;0.87;;
20078;SDS011;10199;48.850;8.924;2024-03-29T00:43:36;0.90;;;0.47;;
20078;SDS011;10199;48.850;8.924;2024-03-29T00:46:04;1.27;;;0.90;;
20078;SDS011;10199;48.850;8.924;2024-03-29T00:48:30;3.20;;;0.87;;
20078;SDS011;10199;48.850;8.924;2024-03-29T00:50:56;1.63;;;0.60;;
20078;SDS011;10199;48.850;8.924;2024-03-29T00:53:22;1.53;;;0.70;;
20078;SDS011;10199;48.850;8.924;2024-03-29T00:55:48;1.30;;;0.70;;
20078;SDS011;10199;48.850;8.924;2024-03-29T00:58:14;1.20;;;0.73;;
20078;SDS011;10199;48.850;8.924;2024-03-29T01:00:40;0.90;;;0.80;;
20078;SDS011;10199;48.850;8.924;2024-03-29T01:03:08;1.63;;;0.90;;
20078;SDS011;10199;48.850;8.924;2024-03-29T01:05:34;1.60;;;0.90;;
20078;SDS011;10199;48.850;8.924;2024-03-29T01:08:00;1.43;;;1.00;;
20078;SDS011;10199;48.850;8.924;2024-03-29T01:10:26;1.67;;;0.60;;
20078;SDS011;10199;48.850;8.924;2024-03-29T01:12:52;0.77;;;0.60;;
20078;SDS011;10199;48.850;8.924;2024-03-29T01:15:18;1.60;;;0.90;;
20078;SDS011;10199;48.850;8.924;2024-03-29T01:17:44;1.77;;;0.70;;
20078;SDS011;10199;48.850;8.924;2024-03-29T01:20:12;1.63;;;0.50;;
20078;SDS011;10199;48.850;8.924;2024-03-29T01:22:38;1.60;;;0.60;;
20078;SDS011;10199;48.850;8.924;2024-03-29T01:25:04;1.47;;;0.63;;
20078;SDS011;10199;48.850;8.924;2024-03-29T01:27:30;1.00;;;0.60;;
20078;SDS011;10199;48.850;8.924;2024-03-29T01:29:57;0.93;;;0.60;;
20078;SDS011;10199;48.850;8.924;2024-03-29T01:32:23;2.03;;;0.63;;
20078;SDS011;10199;48.850;8.924;2024-03-29T01:34:49;0.90;;;0.80;;
20078;SDS011;10199;48.850;8.924;2024-03-29T01:37:16;1.13;;;0.67;;
20078;SDS011;10199;48.850;8.924;2024-03-29T01:39:42;1.20;;;0.60;;
20078;SDS011;10199;48.850;8.924;2024-03-29T01:42:08;1.50;;;0.63;;
20078;SDS011;10199;48.850;8.924;2024-03-29T01:44:34;2.30;;;0.70;;
20078;SDS011;10199;48.850;8.924;2024-03-29T01:47:03;0.87;;;0.63;;
20078;SDS011;10199;48.850;8.924;2024-03-29T01:49:30;0.60;;;0.50;;
20078;SDS011;10199;48.850;8.924;2024-03-29T01:51:57;1.73;;;0.73;;
20078;SDS011;10199;48.850;8.924;2024-03-29T01:54:26;0.83;;;0.57;;
20078;SDS011;10199;48.850;8.924;2024-03-29T01:56:54;1.23;;;0.57;;
20078;SDS011;10199;48.850;8.924;2024-03-29T01:59:21;1.50;;;0.70;;
20078;SDS011;10199;48.850;8.924;2024-03-29T02:01:49;1.53;;;0.60;;
20078;SDS011;10199;48.850;8.924;2024-03-29T02:04:16;2.00;;;0.70;;
20078;SDS011;10199;48.850;8.924;2024-03-29T02:06:44;2.27;;;0.90;;
20078;SDS011;10199;48.850;8.924;2024-03-29T02:09:11;2.37;;;0.83;;
20078;SDS011;10199;48.850;8.924;2024-03-29T02:11:39;1.57;;;0.60;;
20078;SDS011;10199;48.850;8.924;2024-03-29T02:14:07;0.80;;;0.60;;
20078;SDS011;10199;48.850;8.924;2024-03-29T02:16:34;1.30;;;0.70;;
20078;SDS011;10199;48.850;8.924;2024-03-29T02:19:01;2.23;;;0.80;;
20078;SDS011;10199;48.850;8.924;2024-03-29T02:21:28;0.80;;;0.60;;
20078;SDS011;10199;48.850;8.924;2024-03-29T02:26:41;2.17;;;0.80;;
20078;SDS011;10199;48.850;8.924;2024-03-29T02:29:08;1.90;;;0.70;;
20078;SDS011;10199;48.850;8.924;2024-03-29T02:31:35;1.13;;;0.67;;
20078;SDS011;10199;48.850;8.924;2024-03-29T02:34:03;0.97;;;0.57;;
20078;SDS011;10199;48.850;8.924;2024-03-29T02:36:30;0.67;;;0.40;;
20078;SDS011;10199;48.850;8.924;2024-03-29T02:38:57;1.13;;;0.60;;
20078;SDS011;10199;48.850;8.924;2024-03-29T02:41:25;1.17;;;0.67;;
20078;SDS011;10199;48.850;8.924;2024-03-29T02:43:55;0.70;;;0.60;;
20078;SDS011;10199;48.850;8.924;2024-03-29T02:46:23;2.13;;;0.87;;
20078;SDS011;10199;48.850;8.924;2024-03-29T02:48:50;1.87;;;0.80;;
20078;SDS011;10199;48.850;8.924;2024-03-29T02:51:16;1.30;;;0.73;;
20078;SDS011;10199;48.850;8.924;2024-03-29T02:53:44;1.50;;;0.80;;
20078;SDS011;10199;48.850;8.924;2024-03-29T02:56:10;0.60;;;0.53;;
20078;SDS011;10199;48.850;8.924;2024-03-29T02:58:38;1.10;;;0.60;;
20078;SDS011;10199;48.850;8.924;2024-03-29T03:01:05;1.57;;;0.70;;
20078;SDS011;10199;48.850;8.924;2024-03-29T03:03:33;1.40;;;0.50;;
20078;SDS011;10199;48.850;8.924;2024-03-29T03:05:59;0.77;;;0.53;;
20078;SDS011;10199;48.850;8.924;2024-03-29T03:08:26;1.80;;;0.70;;
20078;SDS011;10199;48.850;8.924;2024-03-29T03:11:11;1.93;;;0.70;;
20078;SDS011;10199;48.850;8.924;2024-03-29T03:13:39;2.67;;;0.70;;
20078;SDS011;10199;48.850;8.924;2024-03-29T03:16:06;2.00;;;0.90;;
20078;SDS011;10199;48.850;8.924;2024-03-29T03:18:33;1.50;;;0.90;;
20078;SDS011;10199;48.850;8.924;2024-03-29T03:20:59;0.97;;;0.80;;
20078;SDS011;10199;48.850;8.924;2024-03-29T03:23:26;1.27;;;0.80;;
20078;SDS011;10199;48.850;8.924;2024-03-29T03:25:53;1.27;;;0.97;;
20078;SDS011;10199;48.850;8.924;2024-03-29T03:28:20;1.40;;;0.70;;
20078;SDS011;10199;48.850;8.924;2024-03-29T03:30:48;2.03;;;1.00;;
20078;SDS011;10199;48.850;8.924;2024-03-29T03:33:16;1.93;;;0.80;;
20078;SDS011;10199;48.850;8.924;2024-03-29T03:35:42;1.63;;;0.90;;
20078;SDS011;10199;48.850;8.924;2024-03-29T03:38:09;1.90;;;0.77;;
20078;SDS011;10199;48.850;8.924;2024-03-29T03:40:36;1.17;;;0.77;;
20078;SDS011;10199;48.850;8.924;2024-03-29T03:43:04;1.80;;;1.27;;
20078;SDS011;10199;48.850;8.924;2024-03-29T03:45:33;1.97;;;1.00;;
20078;SDS011;10199;48.850;8.924;2024-03-29T03:48:03;1.67;;;1.00;;
20078;SDS011;10199;48.850;8.924;2024-03-29T03:50:30;1.87;;;1.27;;
20078;SDS011;10199;48.850;8.924;2024-03-29T03:52:57;2.13;;;1.10;;
20078;SDS011;10199;48.850;8.924;2024-03-29T03:55:24;1.30;;;0.90;;
20078;SDS011;10199;48.850;8.924;2024-03-29T03:57:51;1.37;;;0.90;;
20078;SDS011;10199;48.850;8.924;2024-03-29T04:00:18;1.40;;;1.07;;
20078;SDS011;10199;48.850;8.924;2024-03-29T04:02:46;3.77;;;0.93;;
20078;SDS011;10199;48.850;8.924;2024-03-29T04:05:15;1.30;;;0.83;;
20078;SDS011;10199;48.850;8.924;2024-03-29T04:07:42;2.20;;;0.83;;
20078;SDS011;10199;48.850;8.924;2024-03-29T04:10:09;0.70;;;0.60;;
20078;SDS011;10199;48.850;8.924;2024-03-29T04:12:36;1.90;;;0.80;;
20078;SDS011;10199;48.850;8.924;2024-03-29T04:15:02;0.90;;;0.70;;
20078;SDS011;10199;48.850;8.924;2024-03-29T04:17:30;2.67;;;1.37;;
20078;SDS011;10199;48.850;8.924;2024-03-29T04:19:57;1.60;;;0.90;;
20078;SDS011;10199;48.850;8.924;2024-03-29T04:22:27;2.00;;;0.90;;
20078;SDS011;10199;48.850;8.924;2024-03-29T04:24:53;1.43;;;0.80;;
20078;SDS011;10199;48.850;8.924;2024-03-29T04:27:20;1.30;;;0.90;;
20078;SDS011;10199;48.850;8.924;2024-03-29T04:29:46;2.40;;;0.87;;
20078;SDS011;10199;48.850;8.924;2024-03-29T04:32:13;2.50;;;0.97;;
20078;SDS011;10199;48.850;8.924;2024-03-29T04:34:39;0.77;;;0.70;;
20078;SDS011;10199;48.850;8.924;2024-03-29T04:37:06;1.63;;;0.87;;
20078;SDS011;10199;48.850;8.924;2024-03-29T04:39:35;1.17;;;0.77;;
20078;SDS011;10199;48.850;8.924;2024-03-29T04:42:02;1.00;;;0.73;;
20078;SDS011;10199;48.850;8.924;2024-03-29T04:44:29;2.00;;;0.73;;
20078;SDS011;10199;48.850;8.924;2024-03-29T04:46:56;0.90;;;0.67;;
20078;SDS011;10199;48.850;8.924;2024-03-29T04:49:23;1.47;;;0.90;;
20078;SDS011;10199;48.850;8.924;2024-03-29T04:51:56;1.43;;;0.60;;
20078;SDS011;10199;48.850;8.924;2024-03-29T04:54:23;0.70;;;0.60;;
20078;SDS011;10199;48.850;8.924;2024-03-29T04:56:51;1.63;;;0.80;;
20078;SDS011;10199;48.850;8.924;2024-03-29T04:59:19;0.97;;;0.80;;
20078;SDS011;10199;48.850;8.924;2024-03-29T05:01:46;2.10;;;0.90;;
20078;SDS011;10199;48.850;8.924;2024-03-29T05:04:15;1.13;;;0.60;;
20078;SDS011;10199;48.850;8.924;2024-03-29T05:06:50;1.00;;;0.50;;
20078;SDS011;10199;48.850;8.924;2024-03-29T05:09:18;2.03;;;0.57;;
20078;SDS011;10199;48.850;8.924;2024-03-29T05:11:45;1.57;;;0.70;;
20078;SDS011;10199;48.850;8.924;2024-03-29T05:14:14;1.30;;;0.70;;
20078;SDS011;10199;48.850;8.924;2024-03-29T05:16:42;1.00;;;0.70;;
20078;SDS011;10199;48.850;8.924;2024-03-29T05:19:09;1.63;;;0.97;;
20078;SDS011;10199;48.850;8.924;2024-03-29T05:21:36;2.33;;;0.80;;
20078;SDS011;10199;48.850;8.924;2024-03-29T05:24:03;1.17;;;0.70;;
20078;SDS011;10199;48.850;8.924;2024-03-29T05:26:31;1.20;;;0.60;;
20078;SDS011;10199;48.850;8.924;2024-03-29T05:28:58;0.80;;;0.53;;
20078;SDS011;10199;48.850;8.924;2024-03-29T05:31:27;1.20;;;0.80;;
20078;SDS011;10199;48.850;8.924;2024-03-29T05:33:54;1.83;;;0.60;;
20078;SDS011;10199;48.850;8.924;2024-03-29T05:36:21;1.23;;;0.70;;
20078;SDS011;10199;48.850;8.924;2024-03-29T05:38:49;0.93;;;0.67;;
20078;SDS011;10199;48.850;8.924;2024-03-29T05:41:16;1.27;;;0.70;;
20078;SDS011;10199;48.850;8.924;2024-03-29T05:43:43;0.63;;;0.63;;
20078;SDS011;10199;48.850;8.924;2024-03-29T05:46:10;0.80;;;0.50;;
20078;SDS011;10199;48.850;8.924;2024-03-29T05:48:38;1.60;;;0.60;;
20078;SDS011;10199;48.850;8.924;2024-03-29T05:51:05;1.20;;;0.57;;
20078;SDS011;10199;48.850;8.924;2024-03-29T05:53:32;0.60;;;0.50;;
20078;SDS011;10199;48.850;8.924;2024-03-29T05:56:00;0.40;;;0.40;;
20078;SDS011;10199;48.850;8.924;2024-03-29T05:58:27;1.00;;;0.60;;
20078;SDS011;10199;48.850;8.924;2024-03-29T06:00:54;1.03;;;0.60;;
20078;SDS011;10199;48.850;8.924;2024-03-29T06:03:21;1.27;;;0.60;;
20078;SDS011;10199;48.850;8.924;2024-03-29T06:05:49;1.53;;;0.60;;
20078;SDS011;10199;48.850;8.924;2024-03-29T06:08:16;0.80;;;0.70;;
20078;SDS011;10199;48.850;8.924;2024-03-29T06:10:43;1.90;;;1.30;;
20078;SDS011;10199;48.850;8.924;2024-03-29T06:13:11;1.73;;;0.90;;
20078;SDS011;10199;48.850;8.924;2024-03-29T06:15:53;1.10;;;0.90;;
20078;SDS011;10199;48.850;8.924;2024-03-29T06:18:37;1.10;;;0.90;;
20078;SDS011;10199;48.850;8.924;2024-03-29T06:21:07;1.50;;;0.83;;
20078;SDS011;10199;48.850;8.924;2024-03-29T06:23:34;1.13;;;0.80;;
20078;SDS011;10199;48.850;8.924;2024-03-29T06:26:01;1.87;;;0.90;;
20078;SDS011;10199;48.850;8.924;2024-03-29T06:28:28;1.23;;;0.80;;
20078;SDS011;10199;48.850;8.924;2024-03-29T06:30:55;1.63;;;0.90;;
20078;SDS011;10199;48.850;8.924;2024-03-29T06:33:22;1.60;;;0.80;;
20078;SDS011;10199;48.850;8.924;2024-03-29T06:35:52;1.27;;;0.90;;
20078;SDS011;10199;48.850;8.924;2024-03-29T06:38:21;1.77;;;1.20;;
20078;SDS011;10199;48.850;8.924;2024-03-29T06:40:48;1.70;;;0.90;;
20078;SDS011;10199;48.850;8.924;2024-03-29T06:43:15;1.10;;;0.63;;
20078;SDS011;10199;48.850;8.924;2024-03-29T06:45:43;2.57;;;1.53;;
20078;SDS011;10199;48.850;8.924;2024-03-29T06:48:10;4.17;;;1.50;;
20078;SDS011;10199;48.850;8.924;2024-03-29T06:50:37;3.27;;;1.60;;
20078;SDS011;10199;48.850;8.924;2024-03-29T06:53:06;2.37;;;1.40;;
20078;SDS011;10199;48.850;8.924;2024-03-29T06:55:35;1.83;;;1.10;;
20078;SDS011;10199;48.850;8.924;2024-03-29T06:58:03;0.90;;;0.73;;
20078;SDS011;10199;48.850;8.924;2024-03-29T07:00:31;1.23;;;0.97;;
20078;SDS011;10199;48.850;8.924;2024-03-29T07:02:58;2.07;;;1.10;;
20078;SDS011;10199;48.850;8.924;2024-03-29T07:05:25;1.23;;;0.77;;
20078;SDS011;10199;48.850;8.924;2024-03-29T07:07:52;1.50;;;1.30;;
20078;SDS011;10199;48.850;8.924;2024-03-29T07:10:19;3.20;;;2.90;;
20078;SDS011;10199;48.850;8.924;2024-03-29T07:12:48;2.30;;;1.57;;
20078;SDS011;10199;48.850;8.924;2024-03-29T07:15:15;2.03;;;1.20;;
20078;SDS011;10199;48.850;8.924;2024-03-29T07:17:42;2.27;;;1.33;;
20078;SDS011;10199;48.850;8.924;2024-03-29T07:20:10;1.07;;;0.70;;
20078;SDS011;10199;48.850;8.924;2024-03-29T07:22:37;1.00;;;0.70;;
20078;SDS011;10199;48.850;8.924;2024-03-29T07:25:04;0.83;;;0.80;;
20078;SDS011;10199;48.850;8.924;2024-03-29T07:27:32;2.60;;;0.90;;
20078;SDS011;10199;48.850;8.924;2024-03-29T07:30:02;1.50;;;0.73;;
20078;SDS011;10199;48.850;8.924;2024-03-29T07:32:30;2.30;;;1.33;;
20078;SDS011;10199;48.850;8.924;2024-03-29T07:34:57;1.70;;;1.60;;
20078;SDS011;10199;48.850;8.924;2024-03-29T07:37:25;1.93;;;0.70;;
20078;SDS011;10199;48.850;8.924;2024-03-29T07:39:52;0.70;;;0.70;;
20078;SDS011;10199;48.850;8.924;2024-03-29T07:42:19;2.63;;;1.00;;
20078;SDS011;10199;48.850;8.924;2024-03-29T07:44:46;1.93;;;0.83;;
20078;SDS011;10199;48.850;8.924;2024-03-29T07:47:14;1.43;;;0.90;;
20078;SDS011;10199;48.850;8.924;2024-03-29T07:49:41;2.00;;;0.90;;
20078;SDS011;10199;48.850;8.924;2024-03-29T07:54:21;2.43;;;1.43;;
20078;SDS011;10199;48.850;8.924;2024-03-29T07:56:48;1.60;;;1.20;;
20078;SDS011;10199;48.850;8.924;2024-03-29T07:59:15;1.47;;;0.90;;
20078;SDS011;10199;48.850;8.924;2024-03-29T08:01:45;1.60;;;1.30;;
20078;SDS011;10199;48.850;8.924;2024-03-29T08:04:12;4.57;;;1.70;;
20078;SDS011;10199;48.850;8.924;2024-03-29T08:06:39;4.03;;;1.57;;
20078;SDS011;10199;48.850;8.924;2024-03-29T08:09:06;3.67;;;2.33;;
20078;SDS011;10199;48.850;8.924;2024-03-29T08:11:36;2.37;;;1.93;;
20078;SDS011;10199;48.850;8.924;2024-03-29T08:14:03;0.70;;;0.60;;
20078;SDS011;10199;48.850;8.924;2024-03-29T08:16:30;1.63;;;0.80;;
20078;SDS011;10199;48.850;8.924;2024-03-29T08:18:57;1.53;;;0.83;;
20078;SDS011;10199;48.850;8.924;2024-03-29T08:21:24;1.20;;;1.10;;
20078;SDS011;10199;48.850;8.924;2024-03-29T08:23:53;1.47;;;1.03;;
20078;SDS011;10199;48.850;8.924;2024-03-29T08:26:21;1.67;;;1.10;;
20078;SDS011;10199;48.850;8.924;2024-03-29T08:28:50;1.60;;;0.80;;
20078;SDS011;10199;48.850;8.924;2024-03-29T08:31:17;3.67;;;2.57;;
20078;SDS011;10199;48.850;8.924;2024-03-29T08:33:44;2.97;;;2.43;;
20078;SDS011;10199;48.850;8.924;2024-03-29T08:36:11;2.10;;;1.67;;
20078;SDS011;10199;48.850;8.924;2024-03-29T08:38:38;1.13;;;1.00;;
20078;SDS011;10199;48.850;8.924;2024-03-29T08:41:08;2.13;;;1.40;;
20078;SDS011;10199;48.850;8.924;2024-03-29T08:43:35;1.20;;;0.93;;
20078;SDS011;10199;48.850;8.924;2024-03-29T08:46:03;2.07;;;1.20;;
20078;SDS011;10199;48.850;8.924;2024-03-29T08:48:30;1.80;;;1.10;;
20078;SDS011;10199;48.850;8.924;2024-03-29T08:50:57;3.20;;;1.10;;
20078;SDS011;10199;48.850;8.924;2024-03-29T08:53:24;2.53;;;1.00;;
20078;SDS011;10199;48.850;8.924;2024-03-29T08:55:52;2.00;;;1.20;;
20078;SDS011;10199;48.850;8.924;2024-03-29T08:58:20;2.83;;;1.20;;
20078;SDS011;10199;48.850;8.924;2024-03-29T09:00:52;3.33;;;1.30;;
20078;SDS011;10199;48.850;8.924;2024-03-29T09:03:21;2.13;;;1.97;;
20078;SDS011;10199;48.850;8.924;2024-03-29T09:05:49;1.73;;;0.93;;
20078;SDS011;10199;48.850;8.924;2024-03-29T09:08:16;2.80;;;1.13;;
20078;SDS011;10199;48.850;8.924;2024-03-29T09:10:44;1.30;;;1.00;;
20078;SDS011;10199;48.850;8.924;2024-03-29T09:13:11;2.83;;;1.13;;
20078;SDS011;10199;48.850;8.924;2024-03-29T09:15:38;1.17;;;0.97;;
20078;SDS011;10199;48.850;8.924;2024-03-29T09:18:05;1.40;;;1.30;;
20078;SDS011;10199;48.850;8.924;2024-03-29T09:20:44;1.50;;;1.20;;
20078;SDS011;10199;48.850;8.924;2024-03-29T09:23:11;1.60;;;1.50;;
20078;SDS011;10199;48.850;8.924;2024-03-29T09:25:42;3.20;;;1.60;;
20078;SDS011;10199;48.850;8.924;2024-03-29T09:28:09;1.73;;;1.50;;
20078;SDS011;10199;48.850;8.924;2024-03-29T09:30:36;2.87;;;1.73;;
20078;SDS011;10199;48.850;8.924;2024-03-29T09:33:03;2.97;;;1.80;;
20078;SDS011;10199;48.850;8.924;2024-03-29T09:35:32;2.03;;;1.10;;
20078;SDS011;10199;48.850;8.924;2024-03-29T09:38:01;1.10;;;1.00;;
20078;SDS011;10199;48.850;8.924;2024-03-29T09:40:29;1.67;;;1.10;;
20078;SDS011;10199;48.850;8.924;2024-03-29T09:42:59;1.73;;;1.00;;
20078;SDS011;10199;48.850;8.924;2024-03-29T09:45:29;1.17;;;0.90;;
20078;SDS011;10199;48.850;8.924;2024-03-29T09:48:00;1.10;;;0.87;;
20078;SDS011;10199;48.850;8.924;2024-03-29T09:50:29;1.40;;;1.30;;
20078;SDS011;10199;48.850;8.924;2024-03-29T09:52:57;1.47;;;1.03;;
20078;SDS011;10199;48.850;8.924;2024-03-29T09:55:25;2.73;;;1.20;;
20078;SDS011;10199;48.850;8.924;2024-03-29T09:57:54;2.73;;;1.87;;
20078;SDS011;10199;48.850;8.924;2024-03-29T10:00:22;1.90;;;1.70;;
20078;SDS011;10199;48.850;8.924;2024-03-29T10:02:50;2.67;;;2.17;;
20078;SDS011;10199;48.850;8.924;2024-03-29T10:05:20;1.80;;;1.30;;
20078;SDS011;10199;48.850;8.924;2024-03-29T10:07:48;2.43;;;1.47;;
20078;SDS011;10199;48.850;8.924;2024-03-29T10:10:15;2.77;;;1.53;;
20078;SDS011;10199;48.850;8.924;2024-03-29T10:12:45;4.23;;;2.23;;
20078;SDS011;10199;48.850;8.924;2024-03-29T10:15:12;3.23;;;2.10;;
20078;SDS011;10199;48.850;8.924;2024-03-29T10:17:44;3.23;;;1.53;;
20078;SDS011;10199;48.850;8.924;2024-03-29T10:20:15;2.73;;;1.30;;
20078;SDS011;10199;48.850;8.924;2024-03-29T10:22:43;5.40;;;3.50;;
20078;SDS011;10199;48.850;8.924;2024-03-29T10:25:10;2.27;;;1.53;;
20078;SDS011;10199;48.850;8.924;2024-03-29T10:27:38;3.10;;;2.40;;
20078;SDS011;10199;48.850;8.924;2024-03-29T10:30:07;1.67;;;1.57;;
20078;SDS011;10199;48.850;8.924;2024-03-29T10:32:37;1.40;;;1.30;;
20078;SDS011;10199;48.850;8.924;2024-03-29T10:35:05;5.87;;;3.50;;
20078;SDS011;10199;48.850;8.924;2024-03-29T10:37:33;5.37;;;3.30;;
20078;SDS011;10199;48.850;8.924;2024-03-29T10:40:06;5.07;;;2.53;;
20078;SDS011;10199;48.850;8.924;2024-03-29T10:42:34;6.13;;;2.80;;
20078;SDS011;10199;48.850;8.924;2024-03-29T10:45:03;6.77;;;3.90;;
20078;SDS011;10199;48.850;8.924;2024-03-29T10:47:33;4.07;;;2.83;;
20078;SDS011;10199;48.850;8.924;2024-03-29T10:50:01;4.40;;;2.70;;
20078;SDS011;10199;48.850;8.924;2024-03-29T10:52:30;4.27;;;2.67;;
20078;SDS011;10199;48.850;8.924;2024-03-29T10:54:58;2.80;;;2.10;;
20078;SDS011;10199;48.850;8.924;2024-03-29T10:57:25;2.93;;;1.90;;
20078;SDS011;10199;48.850;8.924;2024-03-29T10:59:54;2.80;;;1.60;;
20078;SDS011;10199;48.850;8.924;2024-03-29T11:02:35;2.87;;;1.30;;
20078;SDS011;10199;48.850;8.924;2024-03-29T11:05:11;4.10;;;1.50;;
20078;SDS011;10199;48.850;8.924;2024-03-29T11:07:40;1.70;;;1.30;;
20078;SDS011;10199;48.850;8.924;2024-03-29T11:10:11;2.43;;;1.67;;
20078;SDS011;10199;48.850;8.924;2024-03-29T11:12:44;2.60;;;1.60;;
20078;SDS011;10199;48.850;8.924;2024-03-29T11:15:19;2.30;;;1.60;;
20078;SDS011;10199;48.850;8.924;2024-03-29T11:17:56;1.53;;;1.17;;
20078;SDS011;10199;48.850;8.924;2024-03-29T11:20:24;1.30;;;1.20;;
20078;SDS011;10199;48.850;8.924;2024-03-29T11:23:03;2.63;;;1.40;;
20078;SDS011;10199;48.850;8.924;2024-03-29T11:25:41;1.20;;;1.10;;
20078;SDS011;10199;48.850;8.924;2024-03-29T11:28:11;2.00;;;1.23;;
20078;SDS011;10199;48.850;8.924;2024-03-29T11:30:47;2.83;;;1.57;;
20078;SDS011;10199;48.850;8.924;2024-03-29T11:33:27;2.17;;;1.97;;
20078;SDS011;10199;48.850;8.924;2024-03-29T11:35:56;1.63;;;1.53;;
20078;SDS011;10199;48.850;8.924;2024-03-29T11:38:30;3.47;;;1.60;;
20078;SDS011;10199;48.850;8.924;2024-03-29T11:41:02;2.03;;;1.30;;
20078;SDS011;10199;48.850;8.924;2024-03-29T11:43:30;1.67;;;1.20;;
20078;SDS011;10199;48.850;8.924;2024-03-29T11:45:58;1.87;;;1.30;;
20078;SDS011;10199;48.850;8.924;2024-03-29T11:48:29;1.57;;;1.23;;
20078;SDS011;10199;48.850;8.924;2024-03-29T11:50:57;1.80;;;1.50;;
20078;SDS011;10199;48.850;8.924;2024-03-29T11:53:24;3.70;;;1.90;;
20078;SDS011;10199;48.850;8.924;2024-03-29T11:55:53;1.87;;;1.70;;
20078;SDS011;10199;48.850;8.924;2024-03-29T11:58:21;2.27;;;1.70;;
20078;SDS011;10199;48.850;8.924;2024-03-29T12:00:49;1.90;;;1.53;;
20078;SDS011;10199;48.850;8.924;2024-03-29T12:03:16;2.93;;;1.80;;
20078;SDS011;10199;48.850;8.924;2024-03-29T12:05:47;2.43;;;1.77;;
20078;SDS011;10199;48.850;8.924;2024-03-29T12:08:17;4.67;;;1.70;;
20078;SDS011;10199;48.850;8.924;2024-03-29T12:10:48;3.50;;;1.90;;
20078;SDS011;10199;48.850;8.924;2024-03-29T12:13:18;2.57;;;1.70;;
20078;SDS011;10199;48.850;8.924;2024-03-29T12:15:45;3.83;;;1.80;;
20078;SDS011;10199;48.850;8.924;2024-03-29T12:18:12;2.83;;;1.30;;
20078;SDS011;10199;48.850;8.924;2024-03-29T12:20:42;1.80;;;1.50;;
20078;SDS011;10199;48.850;8.924;2024-03-29T12:23:13;2.03;;;1.23;;
20078;SDS011;10199;48.850;8.924;2024-03-29T12:25:40;1.60;;;1.30;;
20078;SDS011;10199;48.850;8.924;2024-03-29T12:28:08;1.70;;;1.23;;
20078;SDS011;10199;48.850;8.924;2024-03-29T12:30:36;1.40;;;1.20;;
20078;SDS011;10199;48.850;8.924;2024-03-29T12:33:05;1.90;;;1.53;;
20078;SDS011;10199;48.850;8.924;2024-03-29T12:35:33;1.83;;;1.60;;
20078;SDS011;10199;48.850;8.924;2024-03-29T12:38:00;2.40;;;1.93;;
20078;SDS011;10199;48.850;8.924;2024-03-29T12:40:30;3.40;;;1.87;;
20078;SDS011;10199;48.850;8.924;2024-03-29T12:43:02;2.90;;;2.07;;
20078;SDS011;10199;48.850;8.924;2024-03-29T12:45:30;3.10;;;2.37;;
20078;SDS011;10199;48.850;8.924;2024-03-29T12:47:57;4.83;;;2.60;;
20078;SDS011;10199;48.850;8.924;2024-03-29T12:50:25;2.60;;;2.13;;
20078;SDS011;10199;48.850;8.924;2024-03-29T12:52:54;2.13;;;1.87;;
20078;SDS011;10199;48.850;8.924;2024-03-29T12:55:22;2.20;;;2.00;;
20078;SDS011;10199;48.850;8.924;2024-03-29T12:57:51;2.90;;;2.20;;
20078;SDS011;10199;48.850;8.924;2024-03-29T13:00:19;3.03;;;2.27;;
20078;SDS011;10199;48.850;8.924;2024-03-29T13:02:46;3.53;;;2.80;;
20078;SDS011;10199;48.850;8.924;2024-03-29T13:05:14;3.70;;;3.00;;
20078;SDS011;10199;48.850;8.924;2024-03-29T13:07:41;2.80;;;2.27;;
20078;SDS011;10199;48.850;8.924;2024-03-29T13:10:08;3.20;;;2.40;;
20078;SDS011;10199;48.850;8.924;2024-03-29T13:12:39;2.57;;;2.27;;
20078;SDS011;10199;48.850;8.924;2024-03-29T13:15:19;2.33;;;2.13;;
20078;SDS011;10199;48.850;8.924;2024-03-29T13:17:47;2.70;;;2.30;;
20078;SDS011;10199;48.850;8.924;2024-03-29T13:20:15;3.53;;;2.17;;
20078;SDS011;10199;48.850;8.924;2024-03-29T13:22:42;2.37;;;2.00;;
20078;SDS011;10199;48.850;8.924;2024-03-29T13:25:11;2.80;;;2.07;;
20078;SDS011;10199;48.850;8.924;2024-03-29T13:27:39;2.17;;;1.73;;
20078;SDS011;10199;48.850;8.924;2024-03-29T13:30:07;2.50;;;1.70;;
20078;SDS011;10199;48.850;8.924;2024-03-29T13:32:38;1.97;;;1.50;;
20078;SDS011;10199;48.850;8.924;2024-03-29T13:35:06;2.63;;;1.90;;
20078;SDS011;10199;48.850;8.924;2024-03-29T13:37:37;1.97;;;1.70;;
20078;SDS011;10199;48.850;8.924;2024-03-29T13:40:05;1.83;;;1.47;;
20078;SDS011;10199;48.850;8.924;2024-03-29T13:42:33;2.80;;;1.60;;
20078;SDS011;10199;48.850;8.924;2024-03-29T13:45:01;4.40;;;1.50;;
20078;SDS011;10199;48.850;8.924;2024-03-29T13:47:28;2.53;;;1.50;;
20078;SDS011;10199;48.850;8.924;2024-03-29T13:49:57;3.10;;;1.57;;
20078;SDS011;10199;48.850;8.924;2024-03-29T13:52:24;1.87;;;1.40;;
20078;SDS011;10199;48.850;8.924;2024-03-29T13:54:52;1.63;;;1.27;;
20078;SDS011;10199;48.850;8.924;2024-03-29T13:57:20;2.13;;;1.50;;
20078;SDS011;10199;48.850;8.924;2024-03-29T13:59:47;2.00;;;1.40;;
20078;SDS011;10199;48.850;8.924;2024-03-29T14:02:15;1.63;;;1.10;;
20078;SDS011;10199;48.850;8.924;2024-03-29T14:04:43;1.33;;;1.00;;
20078;SDS011;10199;48.850;8.924;2024-03-29T14:07:14;1.00;;;0.80;;
20078;SDS011;10199;48.850;8.924;2024-03-29T14:09:42;1.10;;;0.80;;
20078;SDS011;10199;48.850;8.924;2024-03-29T14:12:10;0.90;;;0.60;;
20078;SDS011;10199;48.850;8.924;2024-03-29T14:14:39;1.10;;;0.70;;
20078;SDS011;10199;48.850;8.924;2024-03-29T14:17:07;2.10;;;0.53;;
20078;SDS011;10199;48.850;8.924;2024-03-29T14:19:34;1.80;;;0.67;;
20078;SDS011;10199;48.850;8.924;2024-03-29T14:22:02;1.97;;;0.90;;
20078;SDS011;10199;48.850;8.924;2024-03-29T14:24:31;0.97;;;0.70;;
20078;SDS011;10199;48.850;8.924;2024-03-29T14:27:01;1.33;;;0.83;;
20078;SDS011;10199;48.850;8.924;2024-03-29T14:29:29;1.40;;;0.90;;
20078;SDS011;10199;48.850;8.924;2024-03-29T14:31:56;1.10;;;0.70;;
20078;SDS011;10199;48.850;8.924;2024-03-29T14:34:23;2.47;;;1.20;;
20078;SDS011;10199;48.850;8.924;2024-03-29T14:36:50;1.70;;;0.80;;
20078;SDS011;10199;48.850;8.924;2024-03-29T14:39:17;1.60;;;1.00;;
20078;SDS011;10199;48.850;8.924;2024-03-29T14:41:48;1.70;;;0.90;;
20078;SDS011;10199;48.850;8.924;2024-03-29T14:44:15;1.43;;;0.67;;
20078;SDS011;10199;48.850;8.924;2024-03-29T14:46:43;1.43;;;0.90;;
20078;SDS011;10199;48.850;8.924;2024-03-29T14:49:10;1.60;;;1.13;;
20078;SDS011;10199;48.850;8.924;2024-03-29T14:51:37;2.27;;;1.00;;
20078;SDS011;10199;48.850;8.924;2024-03-29T14:54:05;1.07;;;0.90;;
20078;SDS011;10199;48.850;8.924;2024-03-29T14:56:33;1.87;;;1.10;;
20078;SDS011;10199;48.850;8.924;2024-03-29T14:59:02;1.97;;;1.40;;